Time;durP1;ratioP1;P1;durP2;ratioP2;P2;SDS_P1;SDS_P2;PMS_P1;PMS_P2;Temp;Humidity;BMP_temperature;BMP_pressure;BME280_temperature;BME280_humidity;BME280_pressure;Samples;Min_cycle;Max_cycle;Signal;HPM_P1;HPM_P2
2021/05/03 00:04:06;;;;;;;4.07;3.78;;;;;;;;;;5072028;28;20417;-72
2021/05/03 00:06:32;;;;;;;5.30;4.80;;;;;;;;;;5070811;28;20183;-75
2021/05/03 00:08:58;;;;;;;4.30;3.90;;;;;;;;;;5071851;28;20493;-76
2021/05/03 00:11:24;;;;;;;5.00;4.53;;;;;;;;;;5071778;28;20461;-72
2021/05/03 00:13:50;;;;;;;4.07;3.67;;;;;;;;;;5071871;28;20434;-70
2021/05/03 00:16:16;;;;;;;4.50;4.10;;;;;;;;;;5071863;28;20400;-73
2021/05/03 00:18:42;;;;;;;6.22;4.75;;;;;;;;;;5072280;28;20410;-77
2021/05/03 00:21:08;;;;;;;5.23;4.23;;;;;;;;;;5071870;28;20626;-75
2021/05/03 00:23:34;;;;;;;5.33;4.80;;;;;;;;;;5071767;28;20418;-71
2021/05/03 00:26:00;;;;;;;4.80;4.40;;;;;;;;;;5071939;28;20757;-80
2021/05/03 00:28:26;;;;;;;5.70;5.07;;;;;;;;;;5071778;28;20473;-76
2021/05/03 00:33:56;;;;;;;5.80;5.03;;;;;;;;;;5071747;28;20453;-77
2021/05/03 00:36:22;;;;;;;7.20;5.70;;;;;;;;;;5072057;28;20170;-76
2021/05/03 00:38:47;;;;;;;6.20;5.47;;;;;;;;;;5071439;28;20890;-75
2021/05/03 00:41:13;;;;;;;5.77;5.10;;;;;;;;;;5071749;28;20418;-74
2021/05/03 00:43:40;;;;;;;6.20;5.60;;;;;;;;;;5073657;28;20460;-75
2021/05/03 00:49:09;;;;;;;6.20;5.35;;;;;;;;;;5075515;28;20259;-70
2021/05/03 00:51:35;;;;;;;5.67;5.10;;;;;;;;;;5075085;28;20170;-70
2021/05/03 00:54:01;;;;;;;8.35;6.10;;;;;;;;;;5075684;28;20435;-78
2021/05/03 00:56:27;;;;;;;5.40;4.90;;;;;;;;;;5075119;28;20515;-70
2021/05/03 00:58:53;;;;;;;6.33;5.73;;;;;;;;;;5075565;28;20439;-77
2021/05/03 01:04:22;;;;;;;5.53;4.60;;;;;;;;;;5075461;28;20458;-78
2021/05/03 01:06:48;;;;;;;8.35;5.57;;;;;;;;;;5074951;28;20178;-75
2021/05/03 01:09:15;;;;;;;6.57;5.47;;;;;;;;;;5075416;28;20578;-70
2021/05/03 01:11:40;;;;;;;8.13;6.40;;;;;;;;;;5074996;28;20234;-69
2021/05/03 01:14:06;;;;;;;8.87;6.53;;;;;;;;;;5075589;28;20171;-70
2021/05/03 01:16:32;;;;;;;6.60;5.90;;;;;;;;;;5081136;28;20411;-72
2021/05/03 01:18:58;;;;;;;6.43;5.83;;;;;;;;;;5075162;28;20487;-72
2021/05/03 01:21:28;;;;;;;6.47;5.60;;;;;;;;;;5075323;28;20763;-70
2021/05/03 01:23:54;;;;;;;8.35;6.60;;;;;;;;;;5074971;28;20931;-76
2021/05/03 01:26:20;;;;;;;8.55;6.30;;;;;;;;;;5074984;28;20170;-72
2021/05/03 01:28:47;;;;;;;7.03;6.33;;;;;;;;;;5074679;28;20687;-73
2021/05/03 01:34:16;;;;;;;9.13;7.00;;;;;;;;;;5075152;28;20181;-74
2021/05/03 01:36:43;;;;;;;8.65;7.35;;;;;;;;;;5073938;28;20175;-76
2021/05/03 01:39:10;;;;;;;10.48;7.85;;;;;;;;;;5073362;28;20176;-78
2021/05/03 01:41:36;;;;;;;7.05;6.03;;;;;;;;;;5074448;28;20651;-73
2021/05/03 01:44:03;;;;;;;9.55;7.45;;;;;;;;;;5074515;28;20166;-80
2021/05/03 01:49:32;;;;;;;9.00;6.68;;;;;;;;;;5074535;28;20632;-71
2021/05/03 01:51:58;;;;;;;9.48;7.10;;;;;;;;;;5073180;28;20625;-75
2021/05/03 01:54:24;;;;;;;7.83;6.83;;;;;;;;;;5073780;28;20178;-73
2021/05/03 01:56:50;;;;;;;8.02;7.18;;;;;;;;;;5073941;28;20474;-69
2021/05/03 01:59:16;;;;;;;8.68;7.40;;;;;;;;;;5073872;28;20178;-71
2021/05/03 02:01:42;;;;;;;9.00;8.10;;;;;;;;;;5074253;28;20599;-70
2021/05/03 02:04:08;;;;;;;9.30;8.13;;;;;;;;;;5074002;28;20200;-76
2021/05/03 02:06:36;;;;;;;8.77;7.45;;;;;;;;;;5074044;28;20412;-72
2021/05/03 02:09:20;;;;;;;8.88;7.97;;;;;;;;;;5073588;28;20240;-76
2021/05/03 02:11:46;;;;;;;8.48;7.60;;;;;;;;;;5073835;28;20277;-75
2021/05/03 02:14:12;;;;;;;8.03;7.07;;;;;;;;;;5073993;28;20257;-74
2021/05/03 02:19:41;;;;;;;9.95;7.55;;;;;;;;;;5073732;28;20552;-80
2021/05/03 02:22:07;;;;;;;9.73;8.73;;;;;;;;;;5073672;28;20270;-79
2021/05/03 02:24:33;;;;;;;9.57;8.48;;;;;;;;;;5073755;28;20246;-76
2021/05/03 02:26:59;;;;;;;11.60;9.43;;;;;;;;;;5073491;28;20172;-77
2021/05/03 02:29:25;;;;;;;10.40;9.13;;;;;;;;;;5073817;28;20420;-72
2021/05/03 02:31:51;;;;;;;8.90;8.00;;;;;;;;;;5073654;28;20407;-71
2021/05/03 02:34:17;;;;;;;10.77;9.57;;;;;;;;;;5073686;28;20428;-72
2021/05/03 02:36:43;;;;;;;12.17;9.13;;;;;;;;;;5073510;28;20793;-75
2021/05/03 02:39:09;;;;;;;11.97;9.93;;;;;;;;;;5073506;28;20412;-79
2021/05/03 02:41:35;;;;;;;9.88;8.88;;;;;;;;;;5073375;28;20416;-75
2021/05/03 02:44:02;;;;;;;12.60;7.90;;;;;;;;;;5072210;28;20173;-75
2021/05/03 02:49:31;;;;;;;11.18;9.05;;;;;;;;;;5073746;28;20193;-73
2021/05/03 02:51:57;;;;;;;10.10;8.30;;;;;;;;;;5073465;28;20530;-72
2021/05/03 02:54:23;;;;;;;9.83;8.60;;;;;;;;;;5073169;28;20424;-77
2021/05/03 02:56:49;;;;;;;9.93;8.90;;;;;;;;;;5073166;28;20507;-80
2021/05/03 02:59:15;;;;;;;7.83;7.03;;;;;;;;;;5073303;28;20435;-71
2021/05/03 03:04:45;;;;;;;10.55;8.93;;;;;;;;;;5073026;28;20995;-72
2021/05/03 03:07:11;;;;;;;9.40;8.50;;;;;;;;;;5072468;28;20201;-75
2021/05/03 03:09:37;;;;;;;10.52;8.93;;;;;;;;;;5073103;28;20415;-76
2021/05/03 03:12:04;;;;;;;10.80;9.80;;;;;;;;;;5072941;28;20754;-76
2021/05/03 03:14:30;;;;;;;14.55;9.13;;;;;;;;;;5073263;28;20416;-72
2021/05/03 03:16:56;;;;;;;13.40;10.10;;;;;;;;;;5073137;28;20261;-76
2021/05/03 03:19:22;;;;;;;10.50;9.40;;;;;;;;;;5072979;28;20423;-74
2021/05/03 03:21:48;;;;;;;10.40;9.37;;;;;;;;;;5072921;28;20439;-72
2021/05/03 03:24:14;;;;;;;11.63;9.60;;;;;;;;;;5072626;28;20422;-76
2021/05/03 03:26:40;;;;;;;12.40;10.67;;;;;;;;;;5073040;28;20176;-74
2021/05/03 03:29:06;;;;;;;10.90;9.63;;;;;;;;;;5072605;28;20466;-76
2021/05/03 03:34:36;;;;;;;11.95;9.18;;;;;;;;;;5073074;28;20180;-73
2021/05/03 03:37:02;;;;;;;9.70;8.67;;;;;;;;;;5072208;28;20256;-70
2021/05/03 03:39:28;;;;;;;10.90;8.80;;;;;;;;;;5071622;28;20903;-73
2021/05/03 03:41:54;;;;;;;10.55;9.43;;;;;;;;;;5072585;28;20431;-75
2021/05/03 03:44:20;;;;;;;10.70;9.70;;;;;;;;;;5072603;28;20170;-69
2021/05/03 03:49:49;;;;;;;13.80;10.20;;;;;;;;;;5073659;28;20199;-76
2021/05/03 03:52:15;;;;;;;10.83;9.73;;;;;;;;;;5073119;28;20177;-70
2021/05/03 03:54:41;;;;;;;11.10;9.00;;;;;;;;;;5073489;28;20473;-70
2021/05/03 03:57:07;;;;;;;9.60;8.43;;;;;;;;;;5072798;28;20414;-69
2021/05/03 03:59:38;;;;;;;12.40;9.73;;;;;;;;;;5073169;28;20425;-69
2021/05/03 04:07:53;;;;;;;11.30;9.45;;;;;;;;;;5072538;28;20208;-69
2021/05/03 04:11:00;;;;;;;13.52;10.25;;;;;;;;;;5072352;28;20317;-79
2021/05/03 04:26:14;;;;;;;10.15;8.13;;;;;;;;;;5076046;28;20396;-74
2021/05/03 04:28:40;;;;;;;12.07;9.05;;;;;;;;;;5076028;28;20266;-76
2021/05/03 04:31:06;;;;;;;11.20;9.30;;;;;;;;;;5075777;28;20250;-78
2021/05/03 04:33:32;;;;;;;14.48;9.68;;;;;;;;;;5074631;28;20213;-69
2021/05/03 04:35:59;;;;;;;11.40;10.10;;;;;;;;;;5074442;28;20619;-72
2021/05/03 04:38:25;;;;;;;10.15;8.60;;;;;;;;;;5076111;28;20181;-70
2021/05/03 04:40:51;;;;;;;10.52;9.30;;;;;;;;;;5075744;28;20173;-69
2021/05/03 04:43:17;;;;;;;9.63;8.73;;;;;;;;;;5075527;28;20272;-72
2021/05/03 04:45:43;;;;;;;9.83;8.93;;;;;;;;;;5074493;28;20432;-73
2021/05/03 04:48:09;;;;;;;10.90;9.90;;;;;;;;;;5075683;28;21044;-71
2021/05/03 04:50:35;;;;;;;11.85;10.35;;;;;;;;;;5076000;28;20421;-77
2021/05/03 04:53:01;;;;;;;10.50;9.07;;;;;;;;;;5075292;28;20262;-70
2021/05/03 04:55:28;;;;;;;11.27;8.75;;;;;;;;;;5075656;28;20424;-74
2021/05/03 04:57:54;;;;;;;10.93;9.10;;;;;;;;;;5075448;28;20179;-78
2021/05/03 05:00:20;;;;;;;9.60;7.90;;;;;;;;;;5075421;28;20176;-74
2021/05/03 05:02:46;;;;;;;13.60;9.50;;;;;;;;;;5075142;28;20493;-72
2021/05/03 05:05:13;;;;;;;12.75;9.35;;;;;;;;;;5075633;28;20327;-73
2021/05/03 05:07:40;;;;;;;12.63;8.35;;;;;;;;;;5075490;28;20199;-73
2021/05/03 05:10:06;;;;;;;9.95;8.23;;;;;;;;;;5075052;28;20181;-73
2021/05/03 05:12:32;;;;;;;10.25;9.15;;;;;;;;;;5075013;28;20213;-72
2021/05/03 05:14:58;;;;;;;10.10;7.53;;;;;;;;;;5075239;28;20548;-77
2021/05/03 05:20:28;;;;;;;8.45;7.65;;;;;;;;;;5075394;28;20267;-72
2021/05/03 05:22:54;;;;;;;9.60;8.60;;;;;;;;;;5074737;28;20285;-77
2021/05/03 05:25:20;;;;;;;9.17;8.17;;;;;;;;;;5075123;28;20183;-69
2021/05/03 05:27:46;;;;;;;7.97;7.20;;;;;;;;;;5074727;28;20465;-72
2021/05/03 05:30:12;;;;;;;9.70;7.90;;;;;;;;;;5072091;28;20495;-71
2021/05/03 05:32:38;;;;;;;9.43;7.50;;;;;;;;;;5074628;28;20801;-70
2021/05/03 05:35:04;;;;;;;9.30;8.30;;;;;;;;;;5075071;28;20178;-72
2021/05/03 05:37:30;;;;;;;9.63;8.63;;;;;;;;;;5074349;28;20422;-72
2021/05/03 05:39:56;;;;;;;10.17;8.90;;;;;;;;;;5074536;28;20160;-74
2021/05/03 05:42:22;;;;;;;10.97;8.83;;;;;;;;;;5074339;28;20948;-73
2021/05/03 05:44:48;;;;;;;9.63;7.90;;;;;;;;;;5074669;28;20454;-72
2021/05/03 05:50:18;;;;;;;10.53;8.80;;;;;;;;;;5074411;28;20429;-73
2021/05/03 05:52:44;;;;;;;8.90;7.83;;;;;;;;;;5074472;28;20422;-77
2021/05/03 05:55:10;;;;;;;8.90;8.00;;;;;;;;;;5074369;28;20763;-71
2021/05/03 05:57:36;;;;;;;7.97;7.27;;;;;;;;;;5074292;28;20418;-71
2021/05/03 06:00:03;;;;;;;8.30;7.50;;;;;;;;;;5074281;28;20416;-72
2021/05/03 06:05:33;;;;;;;8.20;7.50;;;;;;;;;;5073523;28;20439;-77
2021/05/03 06:07:59;;;;;;;6.90;6.27;;;;;;;;;;5073917;28;20458;-70
2021/05/03 06:10:25;;;;;;;9.30;7.77;;;;;;;;;;5073813;28;20940;-74
2021/05/03 06:12:51;;;;;;;8.07;7.27;;;;;;;;;;5073189;28;20433;-77
2021/05/03 06:15:17;;;;;;;8.10;7.30;;;;;;;;;;5073216;28;20414;-73
2021/05/03 06:20:46;;;;;;;6.97;6.27;;;;;;;;;;5073124;28;20444;-72
2021/05/03 06:23:12;;;;;;;6.80;6.20;;;;;;;;;;5072981;28;20513;-71
2021/05/03 06:25:39;;;;;;;6.97;6.27;;;;;;;;;;5073735;28;20414;-71
2021/05/03 06:28:05;;;;;;;7.90;6.60;;;;;;;;;;5073223;28;20497;-77
2021/05/03 06:36:19;;;;;;;8.67;7.77;;;;;;;;;;5074118;28;20827;-82
2021/05/03 06:38:45;;;;;;;9.07;8.17;;;;;;;;;;5073513;28;20442;-79
2021/05/03 06:41:12;;;;;;;9.37;8.47;;;;;;;;;;5072303;28;20777;-80
2021/05/03 06:43:38;;;;;;;11.30;7.80;;;;;;;;;;5073136;28;20402;-75
2021/05/03 06:46:04;;;;;;;10.47;7.77;;;;;;;;;;5071934;28;20436;-70
2021/05/03 06:48:30;;;;;;;7.67;6.97;;;;;;;;;;5073140;28;20986;-77
2021/05/03 06:50:56;;;;;;;8.33;7.53;;;;;;;;;;5071460;28;20447;-77
2021/05/03 06:53:22;;;;;;;10.73;7.00;;;;;;;;;;5072530;28;20430;-77
2021/05/03 06:55:48;;;;;;;6.93;6.23;;;;;;;;;;5072805;28;20426;-76
2021/05/03 06:58:15;;;;;;;6.20;5.70;;;;;;;;;;5072371;28;20435;-75
2021/05/03 07:00:41;;;;;;;7.40;5.90;;;;;;;;;;5072537;28;20455;-76
2021/05/03 07:06:11;;;;;;;7.10;6.50;;;;;;;;;;5072428;28;20534;-74
2021/05/03 07:08:37;;;;;;;6.87;6.10;;;;;;;;;;5072113;28;20495;-75
2021/05/03 07:11:14;;;;;;;6.27;5.73;;;;;;;;;;5072361;28;20465;-74
2021/05/03 07:13:40;;;;;;;7.20;6.50;;;;;;;;;;5072460;28;20417;-77
2021/05/03 07:16:06;;;;;;;7.00;6.30;;;;;;;;;;5072287;28;20413;-74
2021/05/03 07:18:34;;;;;;;7.50;5.87;;;;;;;;;;5072619;28;20411;-78
2021/05/03 07:21:00;;;;;;;6.43;5.83;;;;;;;;;;5072406;28;20433;-75
2021/05/03 07:23:29;;;;;;;5.67;5.17;;;;;;;;;;5072177;28;20491;-75
2021/05/03 07:25:55;;;;;;;6.67;6.10;;;;;;;;;;5072422;28;20737;-76
2021/05/03 07:28:21;;;;;;;6.47;5.87;;;;;;;;;;5072601;28;20501;-75
2021/05/03 07:30:47;;;;;;;6.43;5.83;;;;;;;;;;5072800;28;20438;-75
2021/05/03 07:36:16;;;;;;;7.20;6.50;;;;;;;;;;5072557;28;20503;-77
2021/05/03 07:38:42;;;;;;;5.60;5.10;;;;;;;;;;5072645;28;20407;-79
2021/05/03 07:41:08;;;;;;;5.00;4.60;;;;;;;;;;5072460;28;20402;-77
2021/05/03 07:43:36;;;;;;;5.10;4.70;;;;;;;;;;5072478;28;20771;-78
2021/05/03 07:46:02;;;;;;;4.43;4.07;;;;;;;;;;5072368;28;20406;-79
2021/05/03 07:51:31;;;;;;;5.63;4.53;;;;;;;;;;5071419;28;20425;-79
2021/05/03 07:53:59;;;;;;;8.87;4.97;;;;;;;;;;5075111;28;20406;-79
2021/05/03 07:56:25;;;;;;;5.63;5.13;;;;;;;;;;5074985;28;20421;-75
2021/05/03 07:58:51;;;;;;;5.33;4.50;;;;;;;;;;5075352;28;20467;-75
2021/05/03 08:07:06;;;;;;;4.43;4.03;;;;;;;;;;5074712;28;20812;-76
2021/05/03 08:09:32;;;;;;;5.50;4.23;;;;;;;;;;5074979;28;20437;-77
2021/05/03 08:11:58;;;;;;;5.30;4.90;;;;;;;;;;5074847;28;20477;-84
2021/05/03 08:14:24;;;;;;;7.37;4.73;;;;;;;;;;5076291;28;20904;-82
2021/05/03 08:16:54;;;;;;;7.87;5.17;;;;;;;;;;5076375;28;20424;-78
2021/05/03 08:19:22;;;;;;;5.00;4.53;;;;;;;;;;5074860;28;20907;-79
2021/05/03 08:21:48;;;;;;;5.60;5.10;;;;;;;;;;5074800;28;20517;-76
2021/05/03 08:24:14;;;;;;;5.10;4.70;;;;;;;;;;5074349;28;20445;-76
2021/05/03 08:26:40;;;;;;;6.30;5.10;;;;;;;;;;5074664;28;20406;-80
2021/05/03 08:29:06;;;;;;;5.90;4.93;;;;;;;;;;5074584;28;20461;-79
2021/05/03 08:31:32;;;;;;;5.53;5.03;;;;;;;;;;5072940;28;20430;-80
2021/05/03 08:33:58;;;;;;;6.20;5.20;;;;;;;;;;5074469;28;20450;-80
2021/05/03 08:36:24;;;;;;;5.30;4.80;;;;;;;;;;5075745;28;21019;-79
2021/05/03 08:38:50;;;;;;;5.03;4.60;;;;;;;;;;5076312;28;20792;-79
2021/05/03 08:41:16;;;;;;;5.20;4.43;;;;;;;;;;5075885;28;20443;-79
2021/05/03 08:43:43;;;;;;;5.60;4.60;;;;;;;;;;5074958;28;20526;-79
2021/05/03 08:46:14;;;;;;;4.03;3.70;;;;;;;;;;5074711;28;20426;-79
2021/05/03 08:54:38;;;;;;;4.50;4.10;;;;;;;;;;5074245;28;20509;-79
2021/05/03 08:57:05;;;;;;;5.23;4.17;;;;;;;;;;5073951;28;20418;-79
2021/05/03 08:59:31;;;;;;;4.30;3.83;;;;;;;;;;5073922;28;20414;-79
2021/05/03 09:01:57;;;;;;;5.17;4.67;;;;;;;;;;5074060;28;20483;-79
2021/05/03 09:04:24;;;;;;;7.10;6.40;;;;;;;;;;5072347;28;20486;-77
2021/05/03 09:07:06;;;;;;;8.70;7.80;;;;;;;;;;5073610;28;20814;-80
2021/05/03 09:09:46;;;;;;;8.53;7.60;;;;;;;;;;5072718;28;20430;-76
2021/05/03 09:12:13;;;;;;;6.90;6.20;;;;;;;;;;5072228;28;20974;-78
2021/05/03 09:14:47;;;;;;;7.77;6.40;;;;;;;;;;5073141;28;20493;-79
2021/05/03 09:17:23;;;;;;;9.00;6.80;;;;;;;;;;5073169;28;20425;-78
2021/05/03 09:19:49;;;;;;;7.83;7.10;;;;;;;;;;5073786;28;20756;-77
2021/05/03 09:25:30;;;;;;;7.63;6.93;;;;;;;;;;5051012;28;20440;-78
2021/05/03 09:28:02;;;;;;;7.80;7.10;;;;;;;;;;5073375;28;20461;-77
2021/05/03 09:30:40;;;;;;;7.30;6.63;;;;;;;;;;5073140;28;20429;-79
2021/05/03 09:33:20;;;;;;;8.37;7.63;;;;;;;;;;5073417;28;20413;-82
2021/05/03 09:35:54;;;;;;;7.40;5.90;;;;;;;;;;5073663;28;20778;-79
2021/05/03 09:38:27;;;;;;;8.50;7.33;;;;;;;;;;5073137;28;20417;-77
2021/05/03 09:41:12;;;;;;;7.77;6.73;;;;;;;;;;5073512;28;20422;-75
2021/05/03 09:43:39;;;;;;;7.70;6.90;;;;;;;;;;5073230;28;20414;-74
2021/05/03 09:46:23;;;;;;;9.10;6.97;;;;;;;;;;5071572;28;20484;-79
2021/05/03 09:48:49;;;;;;;7.60;6.80;;;;;;;;;;5072730;28;20497;-80
2021/05/03 09:51:34;;;;;;;6.53;5.87;;;;;;;;;;5072082;28;20742;-77
2021/05/03 09:54:05;;;;;;;6.60;6.00;;;;;;;;;;5072377;28;20418;-75
2021/05/03 09:56:50;;;;;;;10.53;5.87;;;;;;;;;;5072657;28;20410;-78
2021/05/03 09:59:25;;;;;;;8.63;6.50;;;;;;;;;;5072501;28;20526;-76
2021/05/03 10:04:58;;;;;;;8.27;6.80;;;;;;;;;;5072742;28;20433;-78
2021/05/03 10:07:26;;;;;;;9.83;6.70;;;;;;;;;;5072656;28;20457;-78
2021/05/03 10:10:05;;;;;;;6.50;5.90;;;;;;;;;;5072401;28;20556;-78
2021/05/03 10:12:32;;;;;;;6.53;5.70;;;;;;;;;;5072684;28;20928;-79
2021/05/03 10:14:59;;;;;;;5.10;4.60;;;;;;;;;;5072233;28;20620;-77
2021/05/03 10:20:30;;;;;;;5.23;3.73;;;;;;;;;;5071894;28;20831;-81
2021/05/03 10:22:57;;;;;;;4.30;3.90;;;;;;;;;;5072886;28;20498;-80
2021/05/03 10:25:23;;;;;;;3.70;3.40;;;;;;;;;;5073099;28;20417;-78
2021/05/03 10:27:50;;;;;;;4.10;3.70;;;;;;;;;;5072879;28;20464;-79
2021/05/03 10:30:22;;;;;;;4.07;3.77;;;;;;;;;;5075437;28;20414;-75
2021/05/03 10:35:51;;;;;;;4.60;3.30;;;;;;;;;;5072827;28;20456;-78
2021/05/03 10:38:49;;;;;;;3.80;3.50;;;;;;;;;;5072969;28;20398;-78
2021/05/03 10:41:22;;;;;;;3.73;3.43;;;;;;;;;;5049768;28;20806;-77
2021/05/03 10:43:50;;;;;;;4.87;3.13;;;;;;;;;;5072855;28;20750;-78
2021/05/03 10:52:07;;;;;;;3.53;2.73;;;;;;;;;;5072191;28;20417;-77
2021/05/03 10:57:03;;;;;;;4.40;4.10;;;;;;;;;;5072350;28;20421;-76
2021/05/03 10:59:48;;;;;;;3.13;2.83;;;;;;;;;;5071744;28;20681;-79
2021/05/03 11:02:15;;;;;;;3.23;2.93;;;;;;;;;;5071858;28;20415;-79
2021/05/03 11:05:01;;;;;;;5.70;3.90;;;;;;;;;;5071959;28;20456;-81
2021/05/03 11:07:27;;;;;;;3.20;2.90;;;;;;;;;;5071598;28;20465;-80
2021/05/03 11:09:53;;;;;;;3.90;3.60;;;;;;;;;;5071796;28;20414;-80
2021/05/03 11:12:22;;;;;;;4.30;2.70;;;;;;;;;;5072001;28;20426;-79
2021/05/03 11:15:07;;;;;;;3.60;2.70;;;;;;;;;;5072115;28;20459;-81
2021/05/03 11:17:33;;;;;;;4.00;2.30;;;;;;;;;;5071903;28;20461;-80
2021/05/03 11:22:27;;;;;;;3.83;3.10;;;;;;;;;;5072137;28;20430;-78
2021/05/03 11:24:59;;;;;;;3.57;2.80;;;;;;;;;;5072229;28;20414;-79
2021/05/03 11:27:40;;;;;;;2.90;2.70;;;;;;;;;;5071328;28;20454;-79
2021/05/03 11:30:20;;;;;;;3.30;2.70;;;;;;;;;;5072116;28;20425;-76
2021/05/03 11:32:51;;;;;;;2.80;2.60;;;;;;;;;;5075207;28;20421;-79
2021/05/03 11:38:17;;;;;;;3.00;2.80;;;;;;;;;;5072214;28;20413;-80
2021/05/03 11:40:57;;;;;;;4.07;2.87;;;;;;;;;;5071379;28;20456;-79
2021/05/03 11:46:26;;;;;;;3.13;2.83;;;;;;;;;;5071961;28;20766;-79
2021/05/03 11:48:56;;;;;;;2.73;2.53;;;;;;;;;;5071413;28;20814;-79
2021/05/03 11:51:22;;;;;;;3.67;3.37;;;;;;;;;;5071572;28;20421;-79
2021/05/03 11:53:48;;;;;;;3.20;3.00;;;;;;;;;;5071485;28;20430;-79
2021/05/03 11:56:15;;;;;;;4.07;3.47;;;;;;;;;;5071814;28;20426;-78
2021/05/03 11:58:43;;;;;;;2.87;2.67;;;;;;;;;;5071154;28;20436;-79
2021/05/03 12:01:16;;;;;;;2.40;2.20;;;;;;;;;;5071492;28;20855;-76
2021/05/03 12:03:43;;;;;;;6.50;2.93;;;;;;;;;;5071524;28;20456;-77
2021/05/03 12:06:10;;;;;;;2.47;2.27;;;;;;;;;;5071699;28;20429;-79
2021/05/03 12:08:36;;;;;;;2.83;2.37;;;;;;;;;;5069740;28;20519;-81
2021/05/03 12:11:08;;;;;;;2.53;2.33;;;;;;;;;;5071370;28;20781;-79
2021/05/03 12:13:34;;;;;;;2.97;2.20;;;;;;;;;;5071711;28;20422;-78
2021/05/03 12:16:00;;;;;;;3.73;2.50;;;;;;;;;;5070998;28;20406;-78
2021/05/03 12:18:26;;;;;;;2.23;1.90;;;;;;;;;;5069530;28;20434;-80
2021/05/03 12:20:53;;;;;;;2.33;2.00;;;;;;;;;;5069825;28;20436;-78
2021/05/03 12:23:23;;;;;;;4.33;2.60;;;;;;;;;;5071294;28;20930;-77
2021/05/03 12:25:55;;;;;;;2.57;2.37;;;;;;;;;;5069532;28;20406;-75
2021/05/03 12:28:25;;;;;;;2.30;2.10;;;;;;;;;;5069862;28;20466;-79
2021/05/03 12:30:56;;;;;;;2.57;2.37;;;;;;;;;;5070429;28;20472;-80
2021/05/03 12:33:22;;;;;;;2.13;1.93;;;;;;;;;;5071531;28;20414;-81
2021/05/03 12:35:49;;;;;;;3.20;2.10;;;;;;;;;;5071407;28;20402;-78
2021/05/03 12:38:19;;;;;;;2.80;2.60;;;;;;;;;;5070815;28;20433;-79
2021/05/03 12:40:45;;;;;;;2.10;1.90;;;;;;;;;;5075552;28;20475;-78
2021/05/03 12:43:14;;;;;;;2.57;2.37;;;;;;;;;;5075085;28;20472;-78
2021/05/03 12:46:02;;;;;;;2.63;2.43;;;;;;;;;;5075047;28;20785;-77
2021/05/03 12:48:44;;;;;;;2.50;2.27;;;;;;;;;;5072919;28;20886;-76
2021/05/03 12:54:03;;;;;;;2.47;2.27;;;;;;;;;;5074845;28;20410;-76
2021/05/03 12:56:46;;;;;;;2.40;2.20;;;;;;;;;;5074563;28;20436;-75
2021/05/03 13:02:03;;;;;;;3.77;2.47;;;;;;;;;;5074788;28;20414;-76
2021/05/03 13:04:32;;;;;;;5.80;2.23;;;;;;;;;;5072787;28;20452;-76
2021/05/03 13:22:28;;;;;;;2.83;2.63;;;;;;;;;;5074114;28;20437;-77
2021/05/03 13:29:43;;;;;;;3.00;1.63;;;;;;;;;;5074757;28;20487;-81
2021/05/03 13:32:10;;;;;;;2.00;1.63;;;;;;;;;;5072902;28;20426;-81
2021/05/03 13:37:44;;;;;;;2.03;1.83;;;;;;;;;;5073948;28;20567;-84
2021/05/03 13:40:19;;;;;;;1.60;1.50;;;;;;;;;;5062561;22;20526;-83
2021/05/03 13:42:48;;;;;;;2.43;2.10;;;;;;;;;;5030804;28;20438;-83
2021/05/03 13:45:27;;;;;;;2.00;1.60;;;;;;;;;;5032420;28;20908;-80
2021/05/03 13:47:56;;;;;;;4.60;2.27;;;;;;;;;;5049799;28;20466;-80
2021/05/03 13:50:22;;;;;;;2.10;1.90;;;;;;;;;;5032426;28;20438;-76
2021/05/03 13:52:49;;;;;;;2.93;1.83;;;;;;;;;;5050611;28;20431;-76
2021/05/03 13:55:15;;;;;;;1.63;1.53;;;;;;;;;;5030744;28;20961;-79
2021/05/03 13:57:41;;;;;;;2.10;1.90;;;;;;;;;;5033458;28;20446;-79
2021/05/03 14:00:08;;;;;;;1.60;1.50;;;;;;;;;;5049679;28;20898;-78
2021/05/03 14:02:40;;;;;;;3.97;2.10;;;;;;;;;;5048444;28;20512;-80
2021/05/03 14:05:06;;;;;;;2.07;1.87;;;;;;;;;;5047121;28;20521;-83
2021/05/03 14:07:32;;;;;;;1.90;1.67;;;;;;;;;;5051565;28;20481;-75
2021/05/03 14:09:58;;;;;;;2.10;1.90;;;;;;;;;;5051098;28;20501;-77
2021/05/03 14:12:24;;;;;;;1.90;1.70;;;;;;;;;;5045746;28;20862;-76
2021/05/03 14:14:50;;;;;;;1.70;1.60;;;;;;;;;;5048499;28;20463;-76
2021/05/03 14:17:16;;;;;;;2.07;1.87;;;;;;;;;;5048292;28;20450;-77
2021/05/03 14:19:44;;;;;;;1.97;1.87;;;;;;;;;;5049217;28;20820;-76
2021/05/03 14:22:10;;;;;;;2.00;1.80;;;;;;;;;;5031070;28;20447;-77
2021/05/03 14:24:36;;;;;;;2.23;2.07;;;;;;;;;;5048847;28;20820;-76
2021/05/03 14:27:03;;;;;;;2.40;2.20;;;;;;;;;;5048293;28;21035;-77
2021/05/03 14:29:48;;;;;;;1.97;1.87;;;;;;;;;;5049840;28;20479;-77
2021/05/03 14:32:22;;;;;;;3.10;2.07;;;;;;;;;;5049389;28;20423;-76
2021/05/03 14:35:02;;;;;;;2.07;1.90;;;;;;;;;;5045395;28;20537;-77
2021/05/03 14:37:28;;;;;;;4.03;2.30;;;;;;;;;;5046669;28;20951;-78
2021/05/03 14:39:54;;;;;;;2.77;2.33;;;;;;;;;;5047179;28;20498;-77
2021/05/03 14:42:20;;;;;;;2.00;1.90;;;;;;;;;;5048542;28;20814;-78
2021/05/03 14:44:46;;;;;;;2.60;2.40;;;;;;;;;;5030438;28;20450;-78
2021/05/03 14:47:18;;;;;;;1.60;1.50;;;;;;;;;;5046726;28;20454;-75
2021/05/03 14:52:53;;;;;;;1.90;1.40;;;;;;;;;;5044227;28;20497;-79
2021/05/03 14:55:19;;;;;;;1.50;1.40;;;;;;;;;;5029570;28;20443;-77
2021/05/03 14:57:45;;;;;;;2.47;1.50;;;;;;;;;;5042718;28;20619;-77
2021/05/03 15:00:11;;;;;;;2.43;1.97;;;;;;;;;;5044730;28;20438;-78
2021/05/03 15:02:43;;;;;;;1.77;1.67;;;;;;;;;;5042539;28;20447;-75
2021/05/03 15:05:09;;;;;;;1.80;1.70;;;;;;;;;;5046358;28;20435;-75
2021/05/03 15:07:37;;;;;;;4.00;1.67;;;;;;;;;;5043924;28;20685;-80
2021/05/03 15:10:03;;;;;;;2.27;1.37;;;;;;;;;;5027691;28;20462;-79
2021/05/03 15:12:32;;;;;;;1.80;1.70;;;;;;;;;;5037590;28;20454;-80
2021/05/03 15:15:08;;;;;;;1.30;1.20;;;;;;;;;;5039845;28;20446;-78
2021/05/03 15:20:23;;;;;;;2.00;1.43;;;;;;;;;;5045047;28;20462;-78
2021/05/03 15:22:50;;;;;;;1.90;1.70;;;;;;;;;;5026110;28;20455;-78
2021/05/03 15:25:17;;;;;;;1.60;1.50;;;;;;;;;;5027657;28;20501;-81
2021/05/03 15:35:18;;;;;;;1.30;1.20;;;;;;;;;;5049137;28;20450;-75
2021/05/03 15:37:44;;;;;;;1.80;1.70;;;;;;;;;;5041647;28;20435;-79
2021/05/03 15:40:10;;;;;;;1.70;1.60;;;;;;;;;;5049253;28;21018;-78
2021/05/03 15:42:36;;;;;;;3.87;1.77;;;;;;;;;;5051100;28;20434;-76
2021/05/03 15:45:03;;;;;;;1.67;1.53;;;;;;;;;;5048517;28;20474;-78
2021/05/03 15:47:29;;;;;;;2.30;1.50;;;;;;;;;;5050927;28;20524;-79
2021/05/03 15:49:55;;;;;;;2.40;1.90;;;;;;;;;;5024324;28;20447;-77
2021/05/03 15:52:21;;;;;;;1.50;1.33;;;;;;;;;;5051033;28;20447;-79
2021/05/03 15:54:47;;;;;;;1.80;1.70;;;;;;;;;;5050576;28;21069;-77
2021/05/03 15:57:13;;;;;;;1.97;1.83;;;;;;;;;;5051160;28;20445;-75
2021/05/03 15:59:40;;;;;;;1.90;1.80;;;;;;;;;;5033500;28;20453;-77
2021/05/03 16:02:13;;;;;;;2.50;1.90;;;;;;;;;;5048457;28;20435;-76
2021/05/03 16:04:42;;;;;;;1.97;1.77;;;;;;;;;;5051780;28;20450;-77
2021/05/03 16:07:10;;;;;;;3.30;2.03;;;;;;;;;;5042726;28;20457;-76
2021/05/03 16:09:42;;;;;;;1.80;1.50;;;;;;;;;;5049029;28;20525;-77
2021/05/03 16:12:11;;;;;;;2.40;2.23;;;;;;;;;;5044083;28;20454;-77
2021/05/03 16:14:40;;;;;;;2.23;2.13;;;;;;;;;;5048729;28;20459;-78
2021/05/03 16:17:06;;;;;;;1.80;1.70;;;;;;;;;;5051313;28;20804;-75
2021/05/03 16:19:32;;;;;;;1.87;1.77;;;;;;;;;;5055142;28;20483;-75
2021/05/03 16:21:58;;;;;;;1.93;1.80;;;;;;;;;;5054213;28;20568;-77
2021/05/03 16:24:24;;;;;;;1.60;1.50;;;;;;;;;;5055077;28;20486;-79
2021/05/03 16:26:50;;;;;;;1.83;1.73;;;;;;;;;;5054598;28;20465;-75
2021/05/03 16:29:16;;;;;;;2.03;1.93;;;;;;;;;;5054971;28;20486;-76
2021/05/03 16:31:42;;;;;;;1.77;1.67;;;;;;;;;;5051410;28;20442;-76
2021/05/03 16:34:09;;;;;;;2.03;1.83;;;;;;;;;;5053924;28;20442;-75
2021/05/03 16:36:35;;;;;;;2.00;1.90;;;;;;;;;;5050458;28;20864;-76
2021/05/03 16:39:01;;;;;;;2.30;2.17;;;;;;;;;;5048956;28;20478;-75
2021/05/03 16:41:27;;;;;;;2.33;1.93;;;;;;;;;;5033352;28;20442;-74
2021/05/03 16:43:53;;;;;;;3.77;1.73;;;;;;;;;;5049971;28;20450;-76
2021/05/03 16:46:19;;;;;;;2.03;1.83;;;;;;;;;;5050231;28;20575;-77
2021/05/03 16:48:45;;;;;;;3.00;2.23;;;;;;;;;;5050411;28;20483;-79
2021/05/03 16:51:11;;;;;;;2.67;2.47;;;;;;;;;;5044635;28;20589;-76
2021/05/03 16:53:38;;;;;;;2.33;2.13;;;;;;;;;;5047394;28;20488;-75
2021/05/03 16:56:04;;;;;;;2.30;1.90;;;;;;;;;;5050472;28;20435;-77
2021/05/03 16:58:30;;;;;;;2.20;2.00;;;;;;;;;;5047457;28;20462;-79
2021/05/03 17:00:56;;;;;;;3.53;2.20;;;;;;;;;;5048356;28;20937;-78
2021/05/03 17:03:22;;;;;;;1.87;1.77;;;;;;;;;;5049325;28;20447;-81
2021/05/03 17:05:48;;;;;;;3.23;2.00;;;;;;;;;;5048160;28;20454;-77
2021/05/03 17:08:14;;;;;;;2.70;2.00;;;;;;;;;;5047874;28;20830;-78
2021/05/03 17:10:40;;;;;;;1.70;1.60;;;;;;;;;;5048197;28;20466;-80
2021/05/03 17:13:07;;;;;;;1.80;1.70;;;;;;;;;;5049049;28;20465;-78
2021/05/03 17:15:33;;;;;;;1.83;1.70;;;;;;;;;;5048918;28;20453;-79
2021/05/03 17:17:59;;;;;;;3.07;2.33;;;;;;;;;;5049956;28;20477;-79
2021/05/03 17:20:27;;;;;;;1.70;1.60;;;;;;;;;;5050097;28;20451;-79
2021/05/03 17:22:54;;;;;;;2.00;1.90;;;;;;;;;;5049935;28;20447;-80
2021/05/03 17:25:20;;;;;;;2.10;2.00;;;;;;;;;;5049308;28;20500;-77
2021/05/03 17:27:46;;;;;;;2.40;2.20;;;;;;;;;;5031081;28;20490;-75